Time;durP1;ratioP1;P1;durP2;ratioP2;P2;SDS_P1;SDS_P2;PMS_P1;PMS_P2;Temp;Humidity;BMP_temperature;BMP_pressure;BME280_temperature;BME280_humidity;BME280_pressure;Samples;Min_cycle;Max_cycle;Signal;HPM_P1;HPM_P2
2021/12/10 00:00:11;;;;;;;77.47;14.53;;;;;;;;;;5055164;28;20455;-92
2021/12/10 00:02:38;;;;;;;71.73;14.37;;;;;;;;;;5056345;28;20451;-91
2021/12/10 00:05:06;;;;;;;69.77;14.90;;;;;;;;;;5059340;28;20498;-91
2021/12/10 00:07:35;;;;;;;72.90;14.77;;;;;;;;;;5059166;28;20452;-93
2021/12/10 00:10:03;;;;;;;72.50;13.63;;;;;;;;;;5058653;28;20520;-91
2021/12/10 00:12:33;;;;;;;69.23;13.90;;;;;;;;;;5059439;28;20440;-92
2021/12/10 00:14:59;;;;;;;73.50;15.03;;;;;;;;;;5059178;28;20452;-92
2021/12/10 00:17:26;;;;;;;77.60;15.40;;;;;;;;;;5058964;28;20514;-93
2021/12/10 00:19:56;;;;;;;74.23;14.20;;;;;;;;;;5059082;28;20439;-91
2021/12/10 00:22:24;;;;;;;71.77;13.67;;;;;;;;;;5059457;28;20454;-91
2021/12/10 00:24:53;;;;;;;74.47;15.27;;;;;;;;;;5067652;28;20549;-92
2021/12/10 00:27:27;;;;;;;72.73;15.03;;;;;;;;;;5066730;28;20464;-92
2021/12/10 00:30:02;;;;;;;75.33;14.10;;;;;;;;;;5073667;28;20490;-91
2021/12/10 00:32:33;;;;;;;70.17;13.50;;;;;;;;;;5089614;28;20464;-91
2021/12/10 00:35:00;;;;;;;77.63;13.70;;;;;;;;;;5098517;28;20441;-91
2021/12/10 00:37:27;;;;;;;72.13;13.73;;;;;;;;;;5098112;28;20897;-92
2021/12/10 00:39:57;;;;;;;71.57;13.47;;;;;;;;;;5098059;28;20442;-92
2021/12/10 00:42:24;;;;;;;72.90;13.63;;;;;;;;;;5098049;28;20465;-92
2021/12/10 00:44:52;;;;;;;72.33;12.97;;;;;;;;;;5098750;28;20445;-92
2021/12/10 00:47:18;;;;;;;74.03;13.80;;;;;;;;;;5098617;28;20961;-91
2021/12/10 00:49:45;;;;;;;74.57;13.20;;;;;;;;;;5101376;28;20437;-94
2021/12/10 00:52:12;;;;;;;76.97;12.87;;;;;;;;;;5097549;28;20452;-92
2021/12/10 00:54:39;;;;;;;77.63;14.53;;;;;;;;;;5097951;28;20454;-93
2021/12/10 00:57:08;;;;;;;78.13;14.97;;;;;;;;;;5098556;28;20478;-94
2021/12/10 00:59:35;;;;;;;76.83;13.83;;;;;;;;;;5098558;28;20458;-93
2021/12/10 01:02:02;;;;;;;78.40;13.93;;;;;;;;;;5098156;28;20450;-92
2021/12/10 01:04:30;;;;;;;83.40;13.10;;;;;;;;;;5098106;28;20468;-92
2021/12/10 01:06:57;;;;;;;76.17;13.33;;;;;;;;;;5098563;28;20495;-93
2021/12/10 01:09:26;;;;;;;78.47;12.90;;;;;;;;;;5098803;28;20450;-95
2021/12/10 01:11:55;;;;;;;83.00;13.77;;;;;;;;;;5100892;28;20446;-95
2021/12/10 01:14:34;;;;;;;85.53;12.63;;;;;;;;;;5097985;28;20449;-94
2021/12/10 01:25:34;;;;;;;78.23;11.80;;;;;;;;;;5128749;22;20501;-96
2021/12/10 01:28:00;;;;;;;71.30;12.03;;;;;;;;;;5093936;28;20486;-95
2021/12/10 01:30:30;;;;;;;74.17;12.90;;;;;;;;;;5204324;22;20498;-95
2021/12/10 01:33:16;;;;;;;76.80;12.40;;;;;;;;;;5100573;28;20449;-96
2021/12/10 01:35:44;;;;;;;74.07;11.83;;;;;;;;;;5099719;28;20435;-93
2021/12/10 01:38:12;;;;;;;80.87;11.80;;;;;;;;;;5096990;28;20489;-91
2021/12/10 01:40:40;;;;;;;75.53;12.10;;;;;;;;;;5097106;28;20446;-93
2021/12/10 01:43:11;;;;;;;75.33;11.33;;;;;;;;;;5101434;28;20522;-91
2021/12/10 01:45:46;;;;;;;80.63;12.20;;;;;;;;;;5101235;28;20500;-94
2021/12/10 01:48:15;;;;;;;75.90;12.17;;;;;;;;;;5100333;28;20554;-92
2021/12/10 01:50:41;;;;;;;76.90;12.13;;;;;;;;;;5100598;28;20476;-93
2021/12/10 01:53:10;;;;;;;72.67;11.90;;;;;;;;;;5102389;28;20451;-93
2021/12/10 01:55:38;;;;;;;77.40;11.93;;;;;;;;;;5102313;28;20472;-93
2021/12/10 01:58:07;;;;;;;80.80;13.60;;;;;;;;;;5100799;28;20666;-94
2021/12/10 02:00:37;;;;;;;79.70;11.37;;;;;;;;;;5101684;28;20440;-94
2021/12/10 02:03:05;;;;;;;74.83;11.70;;;;;;;;;;5100421;28;20464;-94
2021/12/10 02:05:33;;;;;;;72.33;12.20;;;;;;;;;;5100503;28;20436;-94
2021/12/10 02:07:59;;;;;;;77.60;11.60;;;;;;;;;;5101160;28;20502;-94
2021/12/10 02:10:26;;;;;;;74.77;11.90;;;;;;;;;;5101347;28;20446;-93
2021/12/10 02:12:53;;;;;;;87.63;12.10;;;;;;;;;;5099932;28;20439;-93
2021/12/10 02:15:25;;;;;;;73.80;12.20;;;;;;;;;;5102752;28;20422;-96
2021/12/10 02:17:53;;;;;;;72.70;12.20;;;;;;;;;;5104598;28;20477;-96
2021/12/10 02:20:25;;;;;;;79.60;11.77;;;;;;;;;;5101227;28;20451;-93
2021/12/10 02:22:53;;;;;;;82.47;11.77;;;;;;;;;;5101744;28;20451;-92
2021/12/10 02:25:22;;;;;;;81.70;12.67;;;;;;;;;;5099479;28;20446;-93
2021/12/10 02:27:48;;;;;;;80.17;11.93;;;;;;;;;;5101211;28;20937;-93
2021/12/10 02:30:17;;;;;;;76.70;12.60;;;;;;;;;;5101574;28;20490;-96
2021/12/10 02:32:59;;;;;;;80.90;11.63;;;;;;;;;;5110472;28;20448;-96
2021/12/10 02:35:27;;;;;;;83.03;12.30;;;;;;;;;;5097005;28;20450;-95
2021/12/10 02:37:55;;;;;;;78.03;14.03;;;;;;;;;;5100474;28;20516;-95
2021/12/10 02:40:23;;;;;;;73.77;11.87;;;;;;;;;;5100181;28;20442;-95
2021/12/10 02:42:51;;;;;;;79.00;12.00;;;;;;;;;;5107742;28;20466;-96
2021/12/10 02:45:19;;;;;;;77.87;11.50;;;;;;;;;;5083859;28;20454;-95
2021/12/10 02:47:46;;;;;;;80.57;12.17;;;;;;;;;;5102743;28;20436;-96
2021/12/10 02:50:15;;;;;;;73.73;11.30;;;;;;;;;;5098422;28;20463;-94
2021/12/10 02:55:26;;;;;;;73.97;11.43;;;;;;;;;;5110556;28;20440;-93
2021/12/10 02:57:54;;;;;;;74.07;11.00;;;;;;;;;;5100045;28;20507;-96
2021/12/10 03:00:22;;;;;;;67.97;10.67;;;;;;;;;;5102063;28;20452;-96
2021/12/10 03:02:49;;;;;;;72.87;11.50;;;;;;;;;;5103024;28;20450;-95
2021/12/10 03:05:15;;;;;;;75.63;11.13;;;;;;;;;;5102369;28;20443;-93
2021/12/10 03:07:42;;;;;;;74.23;10.77;;;;;;;;;;5102017;28;20444;-95
2021/12/10 03:10:12;;;;;;;75.40;10.73;;;;;;;;;;5103789;28;20451;-96
2021/12/10 03:15:25;;;;;;;73.93;10.30;;;;;;;;;;5271457;22;20474;-96
2021/12/10 03:17:52;;;;;;;72.03;10.60;;;;;;;;;;5163863;22;20512;-96
2021/12/10 03:20:20;;;;;;;71.27;10.73;;;;;;;;;;5083519;28;20497;-96
2021/12/10 03:22:47;;;;;;;68.10;10.37;;;;;;;;;;5077232;28;20444;-95
2021/12/10 03:25:14;;;;;;;71.60;9.73;;;;;;;;;;5069872;28;20448;-94
2021/12/10 03:27:42;;;;;;;78.20;10.60;;;;;;;;;;5068968;28;20444;-96
2021/12/10 03:30:11;;;;;;;69.53;10.20;;;;;;;;;;5070011;28;20443;-96
2021/12/10 03:32:39;;;;;;;71.87;10.60;;;;;;;;;;5069099;28;20466;-96
2021/12/10 03:35:09;;;;;;;72.20;10.90;;;;;;;;;;5069244;28;20457;-95
2021/12/10 03:37:35;;;;;;;72.13;10.93;;;;;;;;;;5069320;28;20852;-95
2021/12/10 03:40:03;;;;;;;72.40;12.23;;;;;;;;;;5069780;28;20448;-96
2021/12/10 03:42:30;;;;;;;76.27;13.77;;;;;;;;;;5068591;28;20454;-96
2021/12/10 03:44:56;;;;;;;79.50;12.83;;;;;;;;;;5068933;28;20459;-94
2021/12/10 03:47:23;;;;;;;81.00;14.53;;;;;;;;;;5069131;28;20452;-93
2021/12/10 03:49:51;;;;;;;77.90;13.40;;;;;;;;;;5069461;28;20448;-95
2021/12/10 03:52:17;;;;;;;77.03;12.80;;;;;;;;;;5067876;28;20453;-93
2021/12/10 03:54:44;;;;;;;73.47;11.83;;;;;;;;;;5067008;28;20859;-94
2021/12/10 03:57:12;;;;;;;72.20;11.77;;;;;;;;;;5067137;28;20448;-95
2021/12/10 03:59:38;;;;;;;67.57;10.97;;;;;;;;;;5067543;28;20496;-95
2021/12/10 04:02:06;;;;;;;75.67;11.60;;;;;;;;;;5067684;28;20443;-94
2021/12/10 04:04:35;;;;;;;72.00;11.80;;;;;;;;;;5068735;28;21079;-96
2021/12/10 04:07:06;;;;;;;69.63;11.20;;;;;;;;;;5069562;28;20438;-95
2021/12/10 04:09:32;;;;;;;71.40;10.87;;;;;;;;;;5069092;28;20454;-94
2021/12/10 04:11:59;;;;;;;77.83;12.60;;;;;;;;;;5068267;28;20478;-94
2021/12/10 04:14:26;;;;;;;76.47;13.03;;;;;;;;;;5066949;28;20535;-94
2021/12/10 04:16:55;;;;;;;72.67;11.43;;;;;;;;;;5068147;28;20444;-94
2021/12/10 04:19:21;;;;;;;75.73;12.93;;;;;;;;;;5077810;28;20517;-94
2021/12/10 04:21:48;;;;;;;79.43;13.20;;;;;;;;;;5078054;28;20435;-94
2021/12/10 04:24:17;;;;;;;72.20;12.00;;;;;;;;;;5076738;28;20803;-93
2021/12/10 04:26:44;;;;;;;75.87;13.50;;;;;;;;;;5078269;28;21011;-94
2021/12/10 04:29:11;;;;;;;74.43;11.60;;;;;;;;;;5078216;28;20489;-93
2021/12/10 04:31:38;;;;;;;77.07;12.30;;;;;;;;;;5078517;28;20461;-93
2021/12/10 04:34:05;;;;;;;70.60;11.80;;;;;;;;;;5078436;28;20446;-92
2021/12/10 04:36:32;;;;;;;71.33;11.07;;;;;;;;;;5078988;28;20457;-94
2021/12/10 04:38:59;;;;;;;77.87;11.57;;;;;;;;;;5078008;28;20539;-95
2021/12/10 04:41:27;;;;;;;73.90;11.93;;;;;;;;;;5077759;28;20463;-95
2021/12/10 04:43:54;;;;;;;74.20;11.13;;;;;;;;;;5078898;28;21299;-94
2021/12/10 04:46:20;;;;;;;66.60;10.77;;;;;;;;;;5078119;28;20504;-96
2021/12/10 04:48:53;;;;;;;69.83;10.67;;;;;;;;;;5075622;28;20446;-95
2021/12/10 04:51:21;;;;;;;72.67;11.80;;;;;;;;;;5076974;28;20447;-96
2021/12/10 04:59:48;;;;;;;73.10;14.53;;;;;;;;;;5102026;22;20563;-96
2021/12/10 05:03:00;;;;;;;81.57;17.20;;;;;;;;;;5094364;28;20458;-96
2021/12/10 05:05:28;;;;;;;84.20;22.07;;;;;;;;;;5101011;28;21184;-96
2021/12/10 05:07:56;;;;;;;82.60;18.93;;;;;;;;;;5090898;28;20450;-97
2021/12/10 05:19:31;;;;;;;91.23;26.20;;;;;;;;;;5067718;28;20827;-96
2021/12/10 05:22:00;;;;;;;92.83;27.47;;;;;;;;;;5064044;28;20441;-96
2021/12/10 05:24:30;;;;;;;88.20;23.03;;;;;;;;;;5071768;28;20444;-96
2021/12/10 05:26:57;;;;;;;86.03;24.13;;;;;;;;;;5064127;28;20444;-96
2021/12/10 05:34:40;;;;;;;76.50;18.20;;;;;;;;;;5090162;28;20522;-96
2021/12/10 05:37:08;;;;;;;78.90;18.13;;;;;;;;;;5092720;28;20474;-96
2021/12/10 05:39:35;;;;;;;82.50;19.00;;;;;;;;;;5083792;28;20521;-96
2021/12/10 05:42:04;;;;;;;79.33;19.90;;;;;;;;;;5082738;28;20451;-96
2021/12/10 05:44:30;;;;;;;76.97;17.37;;;;;;;;;;5082236;28;20439;-95
2021/12/10 05:46:59;;;;;;;88.43;24.70;;;;;;;;;;5081923;28;20439;-93
2021/12/10 05:49:26;;;;;;;98.00;27.77;;;;;;;;;;5081656;28;20447;-93
2021/12/10 05:51:52;;;;;;;87.80;22.50;;;;;;;;;;5081223;28;20492;-94
2021/12/10 05:54:20;;;;;;;84.53;21.50;;;;;;;;;;5079458;28;20443;-94
2021/12/10 05:56:47;;;;;;;82.70;19.77;;;;;;;;;;5079104;28;20434;-95
2021/12/10 05:59:13;;;;;;;81.60;18.50;;;;;;;;;;5078796;28;20491;-94
2021/12/10 06:01:40;;;;;;;77.30;17.07;;;;;;;;;;5079855;28;20497;-95
2021/12/10 06:04:07;;;;;;;76.50;15.53;;;;;;;;;;5081067;28;20462;-95
2021/12/10 06:06:34;;;;;;;73.47;15.10;;;;;;;;;;5080892;28;20962;-96
2021/12/10 06:09:07;;;;;;;77.63;15.30;;;;;;;;;;5080269;28;20455;-96
2021/12/10 06:11:35;;;;;;;76.07;15.20;;;;;;;;;;5082310;28;20550;-95
2021/12/10 06:14:02;;;;;;;73.87;14.20;;;;;;;;;;5081984;28;20435;-95
2021/12/10 06:16:28;;;;;;;73.73;13.40;;;;;;;;;;5081711;28;20517;-95
2021/12/10 06:18:55;;;;;;;71.57;11.90;;;;;;;;;;5081568;28;20491;-96
2021/12/10 06:21:22;;;;;;;71.13;11.37;;;;;;;;;;5081129;28;20450;-94
2021/12/10 06:23:48;;;;;;;68.97;10.17;;;;;;;;;;5079365;28;20473;-94
2021/12/10 06:26:15;;;;;;;67.43;9.80;;;;;;;;;;5079581;28;20892;-94
2021/12/10 06:28:44;;;;;;;72.20;10.80;;;;;;;;;;5077739;28;20462;-94
2021/12/10 06:31:12;;;;;;;67.23;10.33;;;;;;;;;;5080771;28;20478;-90
2021/12/10 06:33:38;;;;;;;67.70;10.57;;;;;;;;;;5086081;28;20480;-93
2021/12/10 06:36:06;;;;;;;71.53;11.80;;;;;;;;;;5090798;28;21251;-92
2021/12/10 06:38:34;;;;;;;79.20;15.63;;;;;;;;;;5090672;28;20443;-93
2021/12/10 06:41:00;;;;;;;84.30;16.97;;;;;;;;;;5090401;28;20463;-94
2021/12/10 06:43:27;;;;;;;76.87;14.57;;;;;;;;;;5093543;28;20947;-96
2021/12/10 06:45:55;;;;;;;74.60;13.63;;;;;;;;;;5095013;28;20443;-94
2021/12/10 06:48:23;;;;;;;73.30;10.90;;;;;;;;;;5093669;28;20450;-92
2021/12/10 06:50:51;;;;;;;65.70;10.00;;;;;;;;;;5098075;28;20544;-95
2021/12/10 06:53:19;;;;;;;64.70;9.17;;;;;;;;;;5089898;28;20797;-93
2021/12/10 06:55:45;;;;;;;65.77;8.80;;;;;;;;;;5087387;28;20459;-94
2021/12/10 06:58:12;;;;;;;64.40;9.27;;;;;;;;;;5084840;28;20488;-94
2021/12/10 07:00:41;;;;;;;71.90;11.13;;;;;;;;;;5087092;28;20495;-95
2021/12/10 07:03:10;;;;;;;65.80;9.27;;;;;;;;;;5087632;28;20497;-95
2021/12/10 07:05:37;;;;;;;67.63;10.00;;;;;;;;;;5088612;28;20454;-96
2021/12/10 07:08:04;;;;;;;66.27;9.37;;;;;;;;;;5093920;28;20447;-96
2021/12/10 07:15:43;;;;;;;68.70;9.80;;;;;;;;;;5577730;22;20474;-96
2021/12/10 07:23:20;;;;;;;66.07;9.50;;;;;;;;;;5104366;28;20478;-95
2021/12/10 07:25:59;;;;;;;;;;;;;;;;;;;;;
2021/12/10 07:28:26;;;;;;;68.77;10.33;;;;;;;;;;5102675;28;20446;-95
2021/12/10 07:30:53;;;;;;;68.20;9.67;;;;;;;;;;5092440;28;20476;-96
2021/12/10 07:33:20;;;;;;;64.20;9.43;;;;;;;;;;5440106;22;20525;-96
2021/12/10 07:55:05;;;;;;;67.27;10.23;;;;;;;;;;5011710;28;20503;-96
2021/12/10 07:57:32;;;;;;;69.43;9.87;;;;;;;;;;5016471;28;20454;-96
2021/12/10 07:59:58;;;;;;;67.13;9.77;;;;;;;;;;5015046;28;20482;-95
2021/12/10 08:02:25;;;;;;;71.20;11.00;;;;;;;;;;5016658;28;20440;-96
2021/12/10 08:04:57;;;;;;;66.27;9.93;;;;;;;;;;5013370;28;20462;-96
2021/12/10 08:07:25;;;;;;;67.23;9.70;;;;;;;;;;5012814;28;20454;-95
2021/12/10 08:09:52;;;;;;;68.83;10.60;;;;;;;;;;5010184;28;20481;-95
2021/12/10 08:12:27;;;;;;;72.87;10.37;;;;;;;;;;5012893;28;20449;-96
2021/12/10 08:14:55;;;;;;;67.40;10.00;;;;;;;;;;5009357;28;20457;-96
2021/12/10 08:17:23;;;;;;;67.37;10.03;;;;;;;;;;5009204;28;20960;-96
2021/12/10 08:19:51;;;;;;;68.77;10.00;;;;;;;;;;5015124;28;20487;-96
2021/12/10 08:22:18;;;;;;;67.60;9.83;;;;;;;;;;5015384;28;20484;-96
2021/12/10 08:24:45;;;;;;;67.23;9.70;;;;;;;;;;5017387;28;20446;-96
2021/12/10 08:27:16;;;;;;;66.20;9.80;;;;;;;;;;5011556;28;20446;-95
2021/12/10 08:29:48;;;;;;;65.07;9.40;;;;;;;;;;5011912;28;20440;-95
2021/12/10 08:32:19;;;;;;;67.10;10.30;;;;;;;;;;5011563;28;20474;-95
2021/12/10 08:34:46;;;;;;;64.97;9.70;;;;;;;;;;5012540;28;20451;-95
2021/12/10 08:37:14;;;;;;;67.07;9.43;;;;;;;;;;5003238;28;20474;-96
2021/12/10 08:39:41;;;;;;;67.67;9.47;;;;;;;;;;5010190;28;21077;-96
2021/12/10 08:42:08;;;;;;;68.73;10.00;;;;;;;;;;5031582;22;21122;-96
2021/12/10 08:44:37;;;;;;;64.77;10.10;;;;;;;;;;5040618;28;20475;-94
2021/12/10 08:47:05;;;;;;;66.37;9.20;;;;;;;;;;5039985;28;20521;-95
2021/12/10 08:49:32;;;;;;;70.13;9.57;;;;;;;;;;5041165;28;20453;-93
2021/12/10 08:51:58;;;;;;;64.27;8.73;;;;;;;;;;5043757;28;20511;-95
2021/12/10 08:54:27;;;;;;;66.77;9.77;;;;;;;;;;5043974;28;20446;-95
2021/12/10 08:57:14;;;;;;;67.80;10.00;;;;;;;;;;5043232;28;20473;-96
2021/12/10 08:59:40;;;;;;;65.40;9.57;;;;;;;;;;5043051;28;20996;-95
2021/12/10 09:02:17;;;;;;;67.70;9.87;;;;;;;;;;5045897;28;20465;-94
2021/12/10 09:04:44;;;;;;;71.10;9.50;;;;;;;;;;5043667;28;20450;-93
2021/12/10 09:07:12;;;;;;;65.70;9.10;;;;;;;;;;5075072;22;20500;-92
2021/12/10 09:09:41;;;;;;;66.27;10.33;;;;;;;;;;5072586;28;20471;-93
2021/12/10 09:12:10;;;;;;;64.90;10.17;;;;;;;;;;5073600;28;20434;-93
2021/12/10 09:14:41;;;;;;;67.60;10.30;;;;;;;;;;5071716;28;20448;-94
2021/12/10 09:17:09;;;;;;;65.97;9.83;;;;;;;;;;5072379;28;20447;-95
2021/12/10 09:19:36;;;;;;;64.50;10.30;;;;;;;;;;5072253;28;20494;-95
2021/12/10 09:22:03;;;;;;;66.90;10.07;;;;;;;;;;5074224;28;20456;-93
2021/12/10 09:24:30;;;;;;;64.17;10.07;;;;;;;;;;5070603;28;20502;-95
2021/12/10 09:26:58;;;;;;;67.40;10.60;;;;;;;;;;5070561;28;20447;-94
2021/12/10 09:29:25;;;;;;;63.87;9.50;;;;;;;;;;5072658;28;20447;-95
2021/12/10 09:31:52;;;;;;;69.10;9.90;;;;;;;;;;5072042;28;20440;-94
2021/12/10 09:34:21;;;;;;;63.90;8.97;;;;;;;;;;5074254;28;20472;-94
2021/12/10 09:36:48;;;;;;;68.70;9.10;;;;;;;;;;5072891;28;20553;-96
2021/12/10 09:39:16;;;;;;;64.83;9.10;;;;;;;;;;5071867;28;20457;-94
2021/12/10 09:41:42;;;;;;;65.80;10.10;;;;;;;;;;5074670;28;20472;-94
2021/12/10 09:44:09;;;;;;;64.33;9.43;;;;;;;;;;5073385;28;20432;-94
2021/12/10 09:46:36;;;;;;;65.27;9.70;;;;;;;;;;5072659;28;20509;-93
2021/12/10 09:49:03;;;;;;;65.33;9.70;;;;;;;;;;5074092;28;20437;-94
2021/12/10 09:51:34;;;;;;;66.33;9.57;;;;;;;;;;5074102;28;20449;-95
2021/12/10 09:54:02;;;;;;;69.97;9.20;;;;;;;;;;5071953;28;20476;-93
2021/12/10 09:56:29;;;;;;;64.17;9.90;;;;;;;;;;5074038;28;20457;-93
2021/12/10 09:58:56;;;;;;;66.73;10.20;;;;;;;;;;5071974;28;20449;-92
2021/12/10 10:01:24;;;;;;;64.87;10.13;;;;;;;;;;5077557;28;20507;-95
2021/12/10 10:04:01;;;;;;;67.80;9.77;;;;;;;;;;5081281;28;20449;-94
2021/12/10 10:06:28;;;;;;;63.80;9.40;;;;;;;;;;5073826;28;20489;-92
2021/12/10 10:08:56;;;;;;;64.97;10.10;;;;;;;;;;5072137;28;20438;-95
2021/12/10 10:11:27;;;;;;;64.87;9.67;;;;;;;;;;5072890;28;20476;-96
2021/12/10 10:13:56;;;;;;;65.90;9.00;;;;;;;;;;5071032;28;20445;-92
2021/12/10 10:16:23;;;;;;;63.20;9.60;;;;;;;;;;5071216;28;20448;-95
2021/12/10 10:18:51;;;;;;;66.07;9.50;;;;;;;;;;5072674;28;20453;-96
2021/12/10 10:21:19;;;;;;;64.70;9.63;;;;;;;;;;5072613;28;20484;-93
2021/12/10 10:26:33;;;;;;;63.03;9.70;;;;;;;;;;5073524;28;20449;-96
2021/12/10 10:29:00;;;;;;;63.67;9.87;;;;;;;;;;5071972;28;20442;-94
2021/12/10 10:31:27;;;;;;;65.73;9.20;;;;;;;;;;5071959;28;20456;-93
2021/12/10 10:33:55;;;;;;;63.83;9.10;;;;;;;;;;5072141;28;20440;-94
2021/12/10 10:36:23;;;;;;;66.23;9.10;;;;;;;;;;5069493;28;20459;-94
2021/12/10 10:38:52;;;;;;;63.80;9.40;;;;;;;;;;5070226;28;20506;-93
2021/12/10 10:41:21;;;;;;;65.07;9.40;;;;;;;;;;5070540;28;20528;-92
2021/12/10 10:43:49;;;;;;;63.17;9.13;;;;;;;;;;5071073;28;20557;-93
2021/12/10 10:46:16;;;;;;;64.77;8.87;;;;;;;;;;5070537;28;20456;-93
2021/12/10 10:48:44;;;;;;;63.70;9.80;;;;;;;;;;5071561;28;20471;-93
2021/12/10 10:51:14;;;;;;;63.83;9.30;;;;;;;;;;5072556;28;20485;-96
2021/12/10 10:53:44;;;;;;;64.57;9.37;;;;;;;;;;5069450;28;20950;-94
2021/12/10 10:56:17;;;;;;;64.30;9.87;;;;;;;;;;5070060;28;20464;-94
2021/12/10 10:58:46;;;;;;;65.33;8.93;;;;;;;;;;5074267;28;20440;-96
2021/12/10 11:01:22;;;;;;;64.53;8.60;;;;;;;;;;5071849;28;20565;-95
2021/12/10 11:03:53;;;;;;;64.27;9.50;;;;;;;;;;5074638;28;20869;-96
2021/12/10 11:06:25;;;;;;;63.23;9.40;;;;;;;;;;5110889;22;20496;-96
2021/12/10 11:08:53;;;;;;;63.33;9.30;;;;;;;;;;5054607;28;20439;-96
2021/12/10 11:11:22;;;;;;;66.63;9.50;;;;;;;;;;5055696;28;20442;-92
2021/12/10 11:13:50;;;;;;;63.03;9.70;;;;;;;;;;5060851;28;20438;-94
2021/12/10 11:16:20;;;;;;;64.90;9.70;;;;;;;;;;5060582;28;20446;-95
2021/12/10 11:18:52;;;;;;;62.67;9.50;;;;;;;;;;5060689;28;20815;-93
2021/12/10 11:21:32;;;;;;;64.03;8.73;;;;;;;;;;5061273;28;20489;-93
2021/12/10 11:24:06;;;;;;;63.37;9.27;;;;;;;;;;5062679;28;20445;-94
2021/12/10 11:26:43;;;;;;;65.40;10.07;;;;;;;;;;5063672;28;20481;-94
2021/12/10 11:29:26;;;;;;;65.17;9.40;;;;;;;;;;5059576;28;21020;-94
2021/12/10 11:31:58;;;;;;;63.93;10.00;;;;;;;;;;5062006;28;20526;-93
2021/12/10 11:34:39;;;;;;;64.00;9.53;;;;;;;;;;5060292;28;20480;-93
2021/12/10 11:37:05;;;;;;;64.67;10.07;;;;;;;;;;5059682;28;20518;-92
2021/12/10 11:39:44;;;;;;;63.40;9.23;;;;;;;;;;5061920;28;20450;-96
2021/12/10 11:42:36;;;;;;;63.00;9.27;;;;;;;;;;5063319;28;20462;-96
2021/12/10 11:45:17;;;;;;;62.90;9.00;;;;;;;;;;5062260;28;20560;-95
2021/12/10 11:47:48;;;;;;;64.17;10.00;;;;;;;;;;5064162;28;20476;-91
2021/12/10 11:50:20;;;;;;;63.37;9.43;;;;;;;;;;5062170;28;20469;-91
2021/12/10 11:52:59;;;;;;;64.37;9.50;;;;;;;;;;5061535;28;20445;-94
2021/12/10 11:55:26;;;;;;;64.57;9.57;;;;;;;;;;5060117;28;20446;-95
2021/12/10 11:57:52;;;;;;;66.97;10.10;;;;;;;;;;5055913;28;20453;-95
2021/12/10 12:00:20;;;;;;;62.67;9.50;;;;;;;;;;5055819;28;21004;-94
2021/12/10 12:02:49;;;;;;;63.77;9.00;;;;;;;;;;5055099;28;20449;-93
2021/12/10 12:05:17;;;;;;;65.77;8.83;;;;;;;;;;5057881;28;21207;-96
2021/12/10 12:07:44;;;;;;;63.60;9.70;;;;;;;;;;5056829;28;20968;-95
2021/12/10 12:10:16;;;;;;;62.90;9.50;;;;;;;;;;5058894;28;20459;-94
2021/12/10 12:12:44;;;;;;;65.20;9.40;;;;;;;;;;5059099;28;20453;-93
2021/12/10 12:15:12;;;;;;;67.33;9.90;;;;;;;;;;5060216;28;20446;-94
2021/12/10 12:17:42;;;;;;;66.37;9.40;;;;;;;;;;5059896;28;20487;-93
2021/12/10 12:20:22;;;;;;;64.00;9.30;;;;;;;;;;5058266;28;20449;-96
2021/12/10 12:25:41;;;;;;;64.27;9.70;;;;;;;;;;5058155;28;20448;-93
2021/12/10 12:28:09;;;;;;;64.17;8.90;;;;;;;;;;5059246;28;20515;-94
2021/12/10 12:30:49;;;;;;;64.57;9.60;;;;;;;;;;5058468;28;20449;-92
2021/12/10 12:33:17;;;;;;;67.03;10.97;;;;;;;;;;5058699;28;20861;-95
2021/12/10 12:35:46;;;;;;;64.43;9.53;;;;;;;;;;5056598;28;20466;-91
2021/12/10 12:38:15;;;;;;;64.40;9.47;;;;;;;;;;5058248;28;20469;-91
2021/12/10 12:40:42;;;;;;;63.43;9.60;;;;;;;;;;5058523;28;20537;-90
2021/12/10 12:43:09;;;;;;;64.57;9.80;;;;;;;;;;5057808;28;20460;-92
2021/12/10 12:45:36;;;;;;;64.17;9.97;;;;;;;;;;5057033;28;20457;-92
2021/12/10 12:48:05;;;;;;;69.40;9.43;;;;;;;;;;5056448;28;20445;-93
2021/12/10 12:50:32;;;;;;;63.90;9.63;;;;;;;;;;5055789;28;20453;-94
2021/12/10 12:53:01;;;;;;;64.33;9.43;;;;;;;;;;5057769;28;20454;-92
2021/12/10 12:55:40;;;;;;;64.77;9.70;;;;;;;;;;5058552;28;20453;-92
2021/12/10 12:58:17;;;;;;;66.20;9.00;;;;;;;;;;5058722;28;20545;-92
2021/12/10 13:00:46;;;;;;;64.33;9.90;;;;;;;;;;5058807;28;20511;-93
2021/12/10 13:03:14;;;;;;;63.27;9.17;;;;;;;;;;5057797;28;20506;-92
2021/12/10 13:05:43;;;;;;;63.87;9.97;;;;;;;;;;5055664;28;20497;-93
2021/12/10 13:08:17;;;;;;;64.87;9.70;;;;;;;;;;5065235;28;20422;-96
2021/12/10 13:10:53;;;;;;;62.97;8.90;;;;;;;;;;5085041;22;20519;-95
2021/12/10 13:13:31;;;;;;;62.17;7.93;;;;;;;;;;5074119;28;20455;-96
2021/12/10 13:15:57;;;;;;;62.60;8.80;;;;;;;;;;5074524;22;20482;-95
2021/12/10 13:18:27;;;;;;;62.47;8.77;;;;;;;;;;5064963;28;20449;-96
2021/12/10 13:20:54;;;;;;;62.27;9.03;;;;;;;;;;5058681;28;20544;-94
2021/12/10 13:23:26;;;;;;;62.77;9.40;;;;;;;;;;5059432;28;20431;-96
2021/12/10 13:25:58;;;;;;;62.80;8.80;;;;;;;;;;5061645;28;20440;-96
2021/12/10 13:28:25;;;;;;;62.10;8.57;;;;;;;;;;5052696;28;20843;-94
2021/12/10 13:30:56;;;;;;;62.67;9.10;;;;;;;;;;5055307;28;20453;-95
2021/12/10 13:33:25;;;;;;;65.03;8.67;;;;;;;;;;5064938;28;20612;-95
2021/12/10 13:35:52;;;;;;;62.53;9.00;;;;;;;;;;5057357;28;20448;-93
2021/12/10 13:38:22;;;;;;;63.53;8.87;;;;;;;;;;5058513;28;20476;-96
2021/12/10 13:40:51;;;;;;;64.53;8.97;;;;;;;;;;5054087;28;20488;-92
2021/12/10 13:43:20;;;;;;;62.47;8.43;;;;;;;;;;5059985;28;20477;-92
2021/12/10 13:45:59;;;;;;;62.27;8.47;;;;;;;;;;5065352;28;20970;-96
2021/12/10 13:48:37;;;;;;;62.50;8.67;;;;;;;;;;5064114;28;20522;-94
2021/12/10 13:51:05;;;;;;;64.50;9.03;;;;;;;;;;5057028;28;20479;-92
2021/12/10 13:53:31;;;;;;;63.87;9.63;;;;;;;;;;5055188;28;20435;-94
2021/12/10 13:56:01;;;;;;;63.03;8.60;;;;;;;;;;5059476;28;20502;-92
2021/12/10 13:58:33;;;;;;;63.27;9.17;;;;;;;;;;5060776;28;20432;-93
2021/12/10 14:01:01;;;;;;;64.33;10.10;;;;;;;;;;5059900;28;20509;-94
2021/12/10 14:03:51;;;;;;;65.03;9.37;;;;;;;;;;5060510;28;20447;-93
2021/12/10 14:06:19;;;;;;;64.87;9.10;;;;;;;;;;5039343;28;20466;-96
2021/12/10 14:09:06;;;;;;;63.40;8.90;;;;;;;;;;5060155;28;20528;-92
2021/12/10 14:11:51;;;;;;;65.70;10.00;;;;;;;;;;5059636;28;20448;-93
2021/12/10 14:14:17;;;;;;;66.87;9.90;;;;;;;;;;5065331;28;20467;-96
2021/12/10 14:16:46;;;;;;;64.80;9.77;;;;;;;;;;5061803;28;20480;-96
2021/12/10 14:19:31;;;;;;;64.00;9.53;;;;;;;;;;5064736;28;20470;-96
2021/12/10 14:21:58;;;;;;;63.27;8.60;;;;;;;;;;5064711;28;20485;-96
2021/12/10 14:24:33;;;;;;;62.70;8.50;;;;;;;;;;5066307;28;20450;-96
2021/12/10 14:27:22;;;;;;;62.67;8.40;;;;;;;;;;5067642;28;20439;-96
2021/12/10 14:30:03;;;;;;;62.80;8.07;;;;;;;;;;5053908;28;20447;-93
2021/12/10 14:32:31;;;;;;;63.60;8.90;;;;;;;;;;5055145;28;20446;-94
2021/12/10 14:35:05;;;;;;;64.03;8.80;;;;;;;;;;5062926;28;20440;-96
2021/12/10 14:37:46;;;;;;;62.87;8.03;;;;;;;;;;5064312;28;20501;-96
2021/12/10 14:40:13;;;;;;;63.40;8.70;;;;;;;;;;5059492;28;20450;-96
2021/12/10 14:42:39;;;;;;;62.70;8.50;;;;;;;;;;5059444;28;20495;-96
2021/12/10 14:45:07;;;;;;;62.50;8.33;;;;;;;;;;5065132;28;20465;-96
2021/12/10 14:47:35;;;;;;;62.77;8.50;;;;;;;;;;5058777;28;20455;-93
2021/12/10 14:50:05;;;;;;;64.97;8.83;;;;;;;;;;5059340;28;20431;-96
2021/12/10 14:52:33;;;;;;;63.57;8.40;;;;;;;;;;5067593;28;20447;-94
2021/12/10 14:55:08;;;;;;;62.17;7.57;;;;;;;;;;5064958;28;20498;-95
2021/12/10 14:57:49;;;;;;;63.60;8.50;;;;;;;;;;5066821;28;20501;-96
2021/12/10 15:00:35;;;;;;;62.57;8.43;;;;;;;;;;5061495;28;20470;-96
2021/12/10 15:03:10;;;;;;;62.83;8.70;;;;;;;;;;5062122;28;20494;-96
2021/12/10 15:05:50;;;;;;;64.87;9.57;;;;;;;;;;5099892;22;20418;-96
2021/12/10 15:08:34;;;;;;;63.60;8.03;;;;;;;;;;5059582;28;20481;-95
2021/12/10 15:11:02;;;;;;;63.00;8.40;;;;;;;;;;5065100;28;20442;-95
2021/12/10 15:13:29;;;;;;;62.60;8.10;;;;;;;;;;5059206;28;20455;-95
2021/12/10 15:16:04;;;;;;;62.57;8.50;;;;;;;;;;5059898;28;20941;-96
2021/12/10 15:18:40;;;;;;;62.80;8.20;;;;;;;;;;5059595;28;20537;-96
2021/12/10 15:21:35;;;;;;;61.97;7.87;;;;;;;;;;5068621;28;20465;-96
2021/12/10 15:24:10;;;;;;;62.07;7.63;;;;;;;;;;5061106;28;20465;-95
2021/12/10 15:26:40;;;;;;;63.37;8.40;;;;;;;;;;5062230;28;20449;-95
2021/12/10 15:29:33;;;;;;;62.53;8.27;;;;;;;;;;5067526;28;20430;-96
2021/12/10 15:32:05;;;;;;;63.00;8.70;;;;;;;;;;5072850;28;20468;-95
2021/12/10 15:34:35;;;;;;;63.10;9.00;;;;;;;;;;5067605;28;20945;-96
2021/12/10 15:37:02;;;;;;;62.17;8.60;;;;;;;;;;5063343;28;20457;-95
2021/12/10 15:39:28;;;;;;;64.07;8.50;;;;;;;;;;5057898;28;20447;-95
2021/12/10 15:41:56;;;;;;;62.57;8.63;;;;;;;;;;5067907;28;20458;-96
2021/12/10 15:47:24;;;;;;;62.40;8.03;;;;;;;;;;5071328;22;20486;-96
2021/12/10 15:49:54;;;;;;;62.70;8.70;;;;;;;;;;5059897;28;20545;-96